createdAt,value
2022-12-03T00:00:23.390Z,3.83
2022-12-03T00:02:50.267Z,3.47
2022-12-03T00:05:17.099Z,3.58
2022-12-03T00:07:44.030Z,4.13
2022-12-03T00:10:11.486Z,3.67
2022-12-03T00:12:38.370Z,4.57
2022-12-03T00:15:05.786Z,3.80
2022-12-03T00:17:32.783Z,4.03
2022-12-03T00:19:59.568Z,4.00
2022-12-03T00:22:26.477Z,4.15
2022-12-03T00:24:53.624Z,3.97
2022-12-03T00:27:20.675Z,3.97
2022-12-03T00:29:47.498Z,4.22
2022-12-03T00:32:14.333Z,4.25
2022-12-03T00:34:41.088Z,3.83
2022-12-03T00:37:07.915Z,4.57
2022-12-03T00:39:34.747Z,3.83
2022-12-03T00:42:01.600Z,4.13
2022-12-03T00:44:28.441Z,3.70
2022-12-03T00:46:55.260Z,3.88
2022-12-03T00:49:22.063Z,3.65
2022-12-03T00:51:49.008Z,3.30
2022-12-03T00:54:16.029Z,3.65
2022-12-03T00:56:42.807Z,4.00
2022-12-03T00:59:09.601Z,3.88
2022-12-03T01:01:36.481Z,3.80
2022-12-03T01:04:03.356Z,3.45
2022-12-03T01:06:30.110Z,3.65
2022-12-03T01:08:56.870Z,3.90
2022-12-03T01:11:39.127Z,3.20
2022-12-03T01:14:07.110Z,3.70
2022-12-03T01:16:34.268Z,3.28
2022-12-03T01:19:01.181Z,3.90
2022-12-03T01:21:29.380Z,3.78
2022-12-03T01:23:56.495Z,3.58
2022-12-03T01:26:23.453Z,3.70
2022-12-03T01:28:50.230Z,3.78
2022-12-03T01:31:35.948Z,3.80
2022-12-03T01:34:02.840Z,3.95
2022-12-03T01:36:29.597Z,4.40
2022-12-03T01:38:56.326Z,3.72
2022-12-03T01:41:24.772Z,4.07
2022-12-03T01:43:52.687Z,4.72
2022-12-03T01:46:21.205Z,3.58
2022-12-03T01:48:49.298Z,4.43
2022-12-03T01:51:16.148Z,4.65
2022-12-03T01:53:43.616Z,4.97
2022-12-03T01:56:14.814Z,4.40
2022-12-03T01:58:42.059Z,4.55
2022-12-03T02:01:19.022Z,5.28
2022-12-03T02:03:46.328Z,4.93
2022-12-03T02:06:18.106Z,4.68
2022-12-03T02:11:11.552Z,4.18
2022-12-03T02:13:38.438Z,4.57
2022-12-03T02:16:05.393Z,4.30
2022-12-03T02:18:35.077Z,4.00
2022-12-03T02:21:06.638Z,4.00
2022-12-03T02:23:42.623Z,3.70
2022-12-03T02:26:09.635Z,4.38
2022-12-03T02:28:38.127Z,3.92
2022-12-03T02:31:05.438Z,4.22
2022-12-03T02:33:32.415Z,4.00
2022-12-03T02:36:03.612Z,4.32
2022-12-03T02:38:32.422Z,4.65
2022-12-03T02:41:02.238Z,4.38
2022-12-03T02:43:29.062Z,5.63
2022-12-03T02:45:58.373Z,4.28
2022-12-03T02:48:51.435Z,3.97
2022-12-03T02:51:18.284Z,5.10
2022-12-03T02:53:46.343Z,4.35
2022-12-03T02:56:15.827Z,4.32
2022-12-03T02:58:43.943Z,3.97
2022-12-03T03:01:10.955Z,4.20
2022-12-03T03:03:38.066Z,4.95
2022-12-03T03:06:06.570Z,3.85
2022-12-03T03:08:33.796Z,4.57
2022-12-03T03:11:01.035Z,4.13
2022-12-03T03:13:29.830Z,3.90
2022-12-03T03:15:56.724Z,4.35
2022-12-03T03:18:23.605Z,4.28
2022-12-03T03:20:50.452Z,3.85
2022-12-03T03:23:18.565Z,3.58
2022-12-03T03:25:59.829Z,4.13
2022-12-03T03:28:27.115Z,3.65
2022-12-03T03:30:54.050Z,4.45
2022-12-03T03:33:20.885Z,3.90
2022-12-03T03:35:48.172Z,4.03
2022-12-03T03:38:15.833Z,3.92
2022-12-03T03:40:42.941Z,3.30
2022-12-03T03:43:09.754Z,3.58
2022-12-03T03:45:36.545Z,3.70
2022-12-03T03:48:03.622Z,2.90
2022-12-03T03:50:31.404Z,2.90
2022-12-03T03:52:58.984Z,3.20
2022-12-03T03:55:25.857Z,3.33
2022-12-03T03:57:52.697Z,2.78
2022-12-03T04:00:19.639Z,2.97
2022-12-03T04:02:46.767Z,3.85
2022-12-03T04:05:17.950Z,3.08
2022-12-03T04:07:44.815Z,3.20
2022-12-03T04:10:31.040Z,3.20
2022-12-03T04:12:57.920Z,3.20
2022-12-03T04:15:25.349Z,3.55
2022-12-03T04:18:11.348Z,3.05
2022-12-03T04:20:38.697Z,3.45
2022-12-03T04:23:05.750Z,3.00
2022-12-03T04:25:51.410Z,3.22
2022-12-03T04:28:36.996Z,3.25
2022-12-03T04:31:23.911Z,3.90
2022-12-03T04:34:09.484Z,3.55
2022-12-03T04:36:36.299Z,3.65
2022-12-03T04:39:03.086Z,3.90
2022-12-03T04:41:29.913Z,3.75
2022-12-03T04:44:15.358Z,3.42
2022-12-03T04:46:42.129Z,3.90
2022-12-03T04:49:08.925Z,3.70
2022-12-03T04:51:35.741Z,3.47
2022-12-03T04:54:02.592Z,3.60
2022-12-03T04:56:29.383Z,4.13
2022-12-03T04:58:56.135Z,4.15
2022-12-03T05:01:23.140Z,3.53
2022-12-03T05:03:49.900Z,4.13
2022-12-03T05:06:16.945Z,4.07
2022-12-03T05:08:43.705Z,4.22
2022-12-03T05:11:10.458Z,3.80
2022-12-03T05:13:37.269Z,3.50
2022-12-03T05:16:04.102Z,3.38
2022-12-03T05:18:30.932Z,4.50
2022-12-03T05:20:57.704Z,4.70
2022-12-03T05:23:24.463Z,4.03
2022-12-03T05:25:51.303Z,3.55
2022-12-03T05:28:18.087Z,4.50
2022-12-03T05:30:44.900Z,3.33
2022-12-03T05:33:11.720Z,3.80
2022-12-03T05:35:38.488Z,4.75
2022-12-03T05:38:05.406Z,3.75
2022-12-03T05:40:32.264Z,3.95
2022-12-03T05:43:01.197Z,4.15
2022-12-03T05:45:29.505Z,4.05
2022-12-03T05:47:56.985Z,4.43
2022-12-03T05:50:25.794Z,4.05
2022-12-03T05:52:52.596Z,5.05
2022-12-03T05:55:19.630Z,3.90
2022-12-03T05:57:46.885Z,4.40
2022-12-03T06:00:15.258Z,4.65
2022-12-03T06:02:42.114Z,4.53
2022-12-03T06:05:09.657Z,4.97
2022-12-03T06:07:36.563Z,4.95
2022-12-03T06:10:04.721Z,4.47
2022-12-03T06:12:31.978Z,4.68
2022-12-03T06:14:59.607Z,4.70
2022-12-03T06:17:26.587Z,4.47
2022-12-03T06:19:53.396Z,4.25
2022-12-03T06:22:20.379Z,4.68
2022-12-03T06:24:47.277Z,4.18
2022-12-03T06:27:14.486Z,4.45
2022-12-03T06:29:41.253Z,4.50
2022-12-03T06:32:08.302Z,4.28
2022-12-03T06:34:35.482Z,4.00
2022-12-03T06:37:02.307Z,4.18
2022-12-03T06:39:29.103Z,4.35
2022-12-03T06:41:58.796Z,4.53
2022-12-03T06:44:25.634Z,3.70
2022-12-03T06:46:52.413Z,3.53
2022-12-03T06:49:19.323Z,4.13
2022-12-03T06:51:46.077Z,4.25
2022-12-03T06:54:12.861Z,4.30
2022-12-03T06:56:45.144Z,3.92
2022-12-03T06:59:12.548Z,3.65
2022-12-03T07:01:39.345Z,3.70
2022-12-03T07:04:06.146Z,3.38
2022-12-03T07:06:32.905Z,4.38
2022-12-03T07:08:59.658Z,4.07
2022-12-03T07:11:32.452Z,3.78
2022-12-03T07:14:04.654Z,4.20
2022-12-03T07:16:32.607Z,4.20
2022-12-03T07:19:00.545Z,4.78
2022-12-03T07:21:27.330Z,3.40
2022-12-03T07:23:54.088Z,4.03
2022-12-03T07:26:20.976Z,4.43
2022-12-03T07:28:48.364Z,4.00
2022-12-03T07:31:15.596Z,3.92
2022-12-03T07:33:44.257Z,3.30
2022-12-03T07:36:11.066Z,3.25
2022-12-03T07:38:37.901Z,3.53
2022-12-03T07:41:04.696Z,3.35
2022-12-03T07:43:31.536Z,3.50
2022-12-03T07:45:58.314Z,3.53
2022-12-03T07:48:27.413Z,3.70
2022-12-03T07:50:54.170Z,3.58
2022-12-03T07:53:21.147Z,3.25
2022-12-03T07:55:47.968Z,3.17
2022-12-03T07:58:14.757Z,3.40
2022-12-03T08:00:41.964Z,3.63
2022-12-03T08:03:08.820Z,3.00
2022-12-03T08:05:35.575Z,3.45
2022-12-03T08:08:02.425Z,3.50
2022-12-03T08:10:29.235Z,3.30
2022-12-03T08:12:57.020Z,3.30
2022-12-03T08:15:24.909Z,3.67
2022-12-03T08:17:54.398Z,4.45
2022-12-03T08:20:22.969Z,3.45
2022-12-03T08:22:53.654Z,3.28
2022-12-03T08:25:22.360Z,3.65
2022-12-03T08:27:49.985Z,3.05
2022-12-03T08:30:17.558Z,3.15
2022-12-03T08:32:44.877Z,3.30
2022-12-03T08:35:13.441Z,3.28
2022-12-03T08:37:40.543Z,3.58
2022-12-03T08:40:21.981Z,3.22
2022-12-03T08:42:49.122Z,3.03
2022-12-03T08:45:35.141Z,3.00
2022-12-03T08:48:03.921Z,3.28
2022-12-03T08:50:31.993Z,2.80
2022-12-03T08:53:19.038Z,2.67
2022-12-03T08:55:48.641Z,2.80
2022-12-03T08:58:15.379Z,2.92
2022-12-03T09:00:42.862Z,3.00
2022-12-03T09:03:12.827Z,2.70
2022-12-03T09:05:40.446Z,2.78
2022-12-03T09:08:07.379Z,2.90
2022-12-03T09:10:34.181Z,2.72
2022-12-03T09:13:00.927Z,2.83
2022-12-03T09:15:28.471Z,2.80
2022-12-03T09:17:55.239Z,2.80
2022-12-03T09:20:22.079Z,2.40
2022-12-03T09:22:48.924Z,2.30
2022-12-03T09:25:16.501Z,2.45
2022-12-03T09:27:43.274Z,2.45
2022-12-03T09:30:10.499Z,2.72
2022-12-03T09:32:37.252Z,2.13
2022-12-03T09:35:05.001Z,2.47
2022-12-03T09:37:31.877Z,2.63
2022-12-03T09:39:58.632Z,2.38
2022-12-03T09:42:25.732Z,2.72
2022-12-03T09:44:52.887Z,1.92
2022-12-03T09:47:20.190Z,2.38
2022-12-03T09:49:46.998Z,2.25
2022-12-03T09:52:18.187Z,2.22
2022-12-03T09:54:47.603Z,2.65
2022-12-03T09:57:15.389Z,2.00
2022-12-03T09:59:42.250Z,2.22
2022-12-03T10:02:20.364Z,2.30
2022-12-03T10:04:47.539Z,2.45
2022-12-03T10:07:14.505Z,2.83
2022-12-03T10:09:41.398Z,2.30
2022-12-03T10:12:11.111Z,2.03
2022-12-03T10:14:38.261Z,2.28
2022-12-03T10:17:05.218Z,1.85
2022-12-03T10:19:32.980Z,2.15
2022-12-03T10:21:59.758Z,2.40
2022-12-03T10:24:28.910Z,2.60
2022-12-03T10:26:57.654Z,2.35
2022-12-03T10:29:31.593Z,2.50
2022-12-03T10:32:02.301Z,2.15
2022-12-03T10:34:30.754Z,2.45
2022-12-03T10:37:11.174Z,2.00
2022-12-03T10:40:09.136Z,2.45
2022-12-03T10:42:37.342Z,2.00
2022-12-03T10:45:21.157Z,2.20
2022-12-03T10:48:03.334Z,1.95
2022-12-03T10:50:30.249Z,2.15
2022-12-03T10:52:57.047Z,2.22
2022-12-03T10:55:24.090Z,2.13
2022-12-03T10:57:50.930Z,2.65
2022-12-03T11:00:19.015Z,2.47
2022-12-03T11:02:53.054Z,1.83
2022-12-03T11:05:26.754Z,2.10
2022-12-03T11:07:53.849Z,2.30
2022-12-03T11:10:20.828Z,2.30
2022-12-03T11:13:06.514Z,2.03
2022-12-03T11:15:44.137Z,2.17
2022-12-03T11:18:11.075Z,2.08
2022-12-03T11:21:01.150Z,2.58
2022-12-03T11:23:48.193Z,2.30
2022-12-03T11:26:18.848Z,2.03
2022-12-03T11:28:46.152Z,2.05
2022-12-03T11:31:36.473Z,1.73
2022-12-03T11:34:31.441Z,2.30
2022-12-03T11:37:10.689Z,2.35
2022-12-03T11:39:49.735Z,2.35
2022-12-03T11:42:25.748Z,2.30
2022-12-03T11:45:04.901Z,2.22
2022-12-03T11:48:00.110Z,2.20
2022-12-03T11:50:39.757Z,2.03
2022-12-03T11:53:15.537Z,2.40
2022-12-03T11:55:48.489Z,2.20
2022-12-03T11:58:34.164Z,2.35
2022-12-03T12:01:02.070Z,2.30
2022-12-03T12:03:55.435Z,2.80
2022-12-03T12:06:22.354Z,2.00
2022-12-03T12:08:52.199Z,3.10
2022-12-03T12:11:41.390Z,2.42
2022-12-03T12:14:12.220Z,2.72
2022-12-03T12:16:41.453Z,2.03
2022-12-03T12:19:27.185Z,2.38
2022-12-03T12:21:54.138Z,2.58
2022-12-03T12:24:33.345Z,2.97
2022-12-03T12:27:01.606Z,2.75
2022-12-03T12:29:28.494Z,2.60
2022-12-03T12:32:18.497Z,2.92
2022-12-03T12:34:47.034Z,2.58
2022-12-03T12:37:34.444Z,2.78
2022-12-03T12:40:02.086Z,2.70
2022-12-03T12:42:30.514Z,2.50
2022-12-03T12:44:59.851Z,3.35
2022-12-03T12:47:28.554Z,2.80
2022-12-03T12:49:55.865Z,2.83
2022-12-03T12:52:22.773Z,2.85
2022-12-03T12:54:49.544Z,2.63
2022-12-03T12:57:20.650Z,2.75
2022-12-03T12:59:47.405Z,2.83
2022-12-03T13:02:37.597Z,2.92
2022-12-03T13:05:04.774Z,2.63
2022-12-03T13:07:31.895Z,2.33
2022-12-03T13:09:59.527Z,2.83
2022-12-03T13:12:27.020Z,2.90
2022-12-03T13:14:58.261Z,3.38
2022-12-03T13:17:26.104Z,2.90
2022-12-03T13:20:05.128Z,3.05
2022-12-03T13:22:33.734Z,3.00
2022-12-03T13:25:03.678Z,3.38
2022-12-03T13:27:30.428Z,3.35
2022-12-03T13:29:57.424Z,3.38
2022-12-03T13:32:43.218Z,3.40
2022-12-03T13:35:10.018Z,2.75
2022-12-03T13:37:37.288Z,3.40
2022-12-03T13:40:26.354Z,3.00
2022-12-03T13:42:54.350Z,3.28
2022-12-03T13:45:22.355Z,3.00
2022-12-03T13:47:52.712Z,2.97
2022-12-03T13:50:39.410Z,2.90
2022-12-03T13:53:18.640Z,3.42
2022-12-03T13:55:46.640Z,3.20
2022-12-03T13:58:13.617Z,3.35
2022-12-03T14:00:40.449Z,3.10
2022-12-03T14:03:07.275Z,3.25
2022-12-03T14:05:34.065Z,3.65
2022-12-03T14:08:03.639Z,3.40
2022-12-03T14:10:30.677Z,3.90
2022-12-03T14:12:57.792Z,4.20
2022-12-03T14:15:26.318Z,3.92
2022-12-03T14:17:53.349Z,3.42
2022-12-03T14:20:20.189Z,4.30
2022-12-03T14:22:47.022Z,4.05
2022-12-03T14:25:13.821Z,3.80
2022-12-03T14:27:40.642Z,3.35
2022-12-03T14:30:07.750Z,4.20
2022-12-03T14:32:34.548Z,4.32
2022-12-03T14:35:06.611Z,3.67
2022-12-03T14:37:36.484Z,4.70
2022-12-03T14:40:03.942Z,4.03
2022-12-03T14:42:30.758Z,3.78
2022-12-03T14:44:58.134Z,3.90
2022-12-03T14:47:24.908Z,3.95
2022-12-03T14:49:52.439Z,3.80
2022-12-03T14:52:19.670Z,4.22
2022-12-03T14:54:46.487Z,4.30
2022-12-03T14:57:14.198Z,4.05
2022-12-03T14:59:41.596Z,3.83
2022-12-03T15:02:08.836Z,4.15
2022-12-03T15:04:35.703Z,4.70
2022-12-03T15:07:02.533Z,4.22
2022-12-03T15:09:29.304Z,4.60
2022-12-03T15:11:56.217Z,4.47
2022-12-03T15:14:23.031Z,4.72
2022-12-03T15:16:49.925Z,4.97
2022-12-03T15:19:17.038Z,4.50
2022-12-03T15:21:43.831Z,4.70
2022-12-03T15:24:10.794Z,4.30
2022-12-03T15:26:37.578Z,4.22
2022-12-03T15:29:04.381Z,4.60
2022-12-03T15:31:31.236Z,4.75
2022-12-03T15:33:58.129Z,5.13
2022-12-03T15:36:24.950Z,4.10
2022-12-03T15:38:51.751Z,4.85
2022-12-03T15:41:21.633Z,5.45
2022-12-03T15:43:48.925Z,4.40
2022-12-03T15:46:15.876Z,5.50
2022-12-03T15:48:43.403Z,5.57
2022-12-03T15:51:10.163Z,4.90
2022-12-03T15:53:36.930Z,4.53
2022-12-03T15:56:03.844Z,4.70
2022-12-03T15:58:30.724Z,4.47
2022-12-03T16:00:57.505Z,5.22
2022-12-03T16:03:24.462Z,5.22
2022-12-03T16:05:51.238Z,5.47
2022-12-03T16:08:18.088Z,4.65
2022-12-03T16:10:44.891Z,4.50
2022-12-03T16:13:11.641Z,5.13
2022-12-03T16:15:38.568Z,5.20
2022-12-03T16:18:05.438Z,5.03
2022-12-03T16:20:32.200Z,5.15
2022-12-03T16:22:58.941Z,5.13
2022-12-03T16:25:25.715Z,5.03
2022-12-03T16:27:52.674Z,5.03
2022-12-03T16:30:19.642Z,5.40
2022-12-03T16:32:46.412Z,5.53
2022-12-03T16:35:13.185Z,5.32
2022-12-03T16:37:39.917Z,4.90
2022-12-03T16:40:07.264Z,5.93
2022-12-03T16:42:34.054Z,4.90
2022-12-03T16:45:00.790Z,4.82
2022-12-03T16:47:33.446Z,5.68
2022-12-03T16:50:01.290Z,5.82
2022-12-03T16:52:28.121Z,4.93
2022-12-03T16:54:54.853Z,5.50
2022-12-03T16:57:21.622Z,5.75
2022-12-03T16:59:48.392Z,5.50
2022-12-03T17:02:15.232Z,6.03
2022-12-03T17:04:42.129Z,6.03
2022-12-03T17:07:09.064Z,5.88
2022-12-03T17:09:35.831Z,7.07
2022-12-03T17:12:02.620Z,7.20
2022-12-03T17:14:33.282Z,5.80
2022-12-03T17:17:00.440Z,6.22
2022-12-03T17:19:27.263Z,6.60
2022-12-03T17:21:54.268Z,6.70
2022-12-03T17:24:21.597Z,6.28
2022-12-03T17:26:48.548Z,5.25
2022-12-03T17:29:15.408Z,6.68
2022-12-03T17:31:42.919Z,6.70
2022-12-03T17:34:10.232Z,6.10
2022-12-03T17:36:37.047Z,5.40
2022-12-03T17:39:03.830Z,6.25
2022-12-03T17:41:30.653Z,5.63
2022-12-03T17:43:57.451Z,5.30
2022-12-03T17:46:24.259Z,5.82
2022-12-03T17:48:51.067Z,6.45
2022-12-03T17:51:20.827Z,5.38
2022-12-03T17:53:47.627Z,6.32
2022-12-03T17:56:14.815Z,6.05
2022-12-03T17:58:41.595Z,5.63
2022-12-03T18:01:10.425Z,6.07
2022-12-03T18:03:37.358Z,5.80
2022-12-03T18:06:04.689Z,6.60
2022-12-03T18:08:31.428Z,6.57
2022-12-03T18:10:58.188Z,6.78
2022-12-03T18:13:25.061Z,6.10
2022-12-03T18:15:51.867Z,5.93
2022-12-03T18:18:18.701Z,6.75
2022-12-03T18:20:45.525Z,6.75
2022-12-03T18:23:12.552Z,7.47
2022-12-03T18:25:39.435Z,6.85
2022-12-03T18:28:06.282Z,6.50
2022-12-03T18:30:33.056Z,6.88
2022-12-03T18:32:59.844Z,6.28
2022-12-03T18:35:26.730Z,6.53
2022-12-03T18:37:53.566Z,7.22
2022-12-03T18:40:22.554Z,6.47
2022-12-03T18:42:49.366Z,6.18
2022-12-03T18:45:16.354Z,7.05
2022-12-03T18:47:43.415Z,7.80
2022-12-03T18:50:10.945Z,6.82
2022-12-03T18:52:37.800Z,7.30
2022-12-03T18:55:05.198Z,7.00
2022-12-03T18:57:31.990Z,7.82
2022-12-03T18:59:58.869Z,8.05
2022-12-03T19:02:54.360Z,8.35
2022-12-03T19:05:12.862Z,7.07
2022-12-03T19:07:39.727Z,7.43
2022-12-03T19:10:07.285Z,7.68
2022-12-03T19:12:34.057Z,6.78
2022-12-03T19:15:01.321Z,7.28
2022-12-03T19:17:28.173Z,7.57
2022-12-03T19:19:55.333Z,7.22
2022-12-03T19:22:22.527Z,6.45
2022-12-03T19:24:49.634Z,6.25
2022-12-03T19:27:16.417Z,7.47
2022-12-03T19:29:43.276Z,7.18
2022-12-03T19:32:10.141Z,7.60
2022-12-03T19:34:36.993Z,7.07
2022-12-03T19:37:03.779Z,6.53
2022-12-03T19:39:30.576Z,7.00
2022-12-03T19:41:57.694Z,6.53
2022-12-03T19:44:24.554Z,7.55
2022-12-03T19:46:51.361Z,6.75
2022-12-03T19:49:20.996Z,6.70
2022-12-03T19:51:47.915Z,7.03
2022-12-03T19:54:15.082Z,6.43
2022-12-03T19:56:42.400Z,6.65
2022-12-03T19:59:11.421Z,6.25
2022-12-03T20:01:40.504Z,6.80
2022-12-03T20:04:08.021Z,6.68
2022-12-03T20:06:37.856Z,7.30
2022-12-03T20:09:10.747Z,6.57
2022-12-03T20:11:38.363Z,6.03
2022-12-03T20:14:06.731Z,6.53
2022-12-03T20:16:34.011Z,7.40
2022-12-03T20:19:05.569Z,7.28
2022-12-03T20:21:33.210Z,7.75
2022-12-03T20:24:00.193Z,7.40
2022-12-03T20:26:27.495Z,7.68
2022-12-03T20:28:55.074Z,6.97
2022-12-03T20:31:23.749Z,7.53
2022-12-03T20:33:51.784Z,10.10
2022-12-03T20:36:19.401Z,7.25
2022-12-03T20:38:46.242Z,7.53
2022-12-03T20:41:14.694Z,7.05
2022-12-03T20:43:41.851Z,7.40
2022-12-03T20:46:14.423Z,7.50
2022-12-03T20:48:41.430Z,7.50
2022-12-03T20:51:09.479Z,8.00
2022-12-03T20:53:36.678Z,6.80
2022-12-03T20:56:04.632Z,6.15
2022-12-03T20:58:31.851Z,6.97
2022-12-03T21:01:14.005Z,6.72
2022-12-03T21:03:42.875Z,7.63
2022-12-03T21:06:10.776Z,7.43
2022-12-03T21:08:42.481Z,6.65
2022-12-03T21:11:10.288Z,7.45
2022-12-03T21:13:37.298Z,6.90
2022-12-03T21:16:05.486Z,6.03
2022-12-03T21:18:32.603Z,6.80
2022-12-03T21:21:00.387Z,7.13
2022-12-03T21:23:29.804Z,6.57
2022-12-03T21:26:06.846Z,6.45
2022-12-03T21:28:33.678Z,6.47
2022-12-03T21:31:05.321Z,6.72
2022-12-03T21:35:59.360Z,6.43
2022-12-03T21:38:29.561Z,7.25
2022-12-03T21:40:56.611Z,6.70
2022-12-03T21:43:23.757Z,6.57
2022-12-03T21:45:50.947Z,7.50
2022-12-03T21:48:18.312Z,6.80
2022-12-03T21:50:57.823Z,6.90
2022-12-03T21:53:24.598Z,6.80
2022-12-03T21:55:51.340Z,6.72
2022-12-03T21:58:18.093Z,7.00
2022-12-03T22:00:44.888Z,6.15
2022-12-03T22:03:11.764Z,6.97
2022-12-03T22:05:38.763Z,6.65
2022-12-03T22:08:06.105Z,7.10
2022-12-03T22:10:33.328Z,6.60
2022-12-03T22:13:00.088Z,7.43
2022-12-03T22:15:26.880Z,6.78
2022-12-03T22:17:53.649Z,6.60
2022-12-03T22:20:20.479Z,6.60
2022-12-03T22:22:47.283Z,6.65
2022-12-03T22:25:14.051Z,7.10
2022-12-03T22:27:40.806Z,7.45
2022-12-03T22:30:07.836Z,7.78
2022-12-03T22:32:34.644Z,6.53
2022-12-03T22:35:01.417Z,6.70
2022-12-03T22:37:28.206Z,6.15
2022-12-03T22:39:55.139Z,6.93
2022-12-03T22:42:22.068Z,6.38
2022-12-03T22:44:48.869Z,6.40
2022-12-03T22:47:15.648Z,6.78
2022-12-03T22:49:42.413Z,6.85
2022-12-03T22:52:09.235Z,6.85
2022-12-03T22:54:36.014Z,6.10
2022-12-03T22:57:02.972Z,6.05
2022-12-03T22:59:29.736Z,6.15
2022-12-03T23:01:56.459Z,6.28
2022-12-03T23:04:23.173Z,6.85
2022-12-03T23:06:49.982Z,6.60
2022-12-03T23:09:16.794Z,6.43
2022-12-03T23:11:44.389Z,5.80
2022-12-03T23:14:12.145Z,6.88
2022-12-03T23:16:39.771Z,6.60
2022-12-03T23:19:06.632Z,7.15
2022-12-03T23:21:34.395Z,5.82
2022-12-03T23:24:02.433Z,6.30
2022-12-03T23:26:29.394Z,6.03
2022-12-03T23:28:56.657Z,6.03
2022-12-03T23:31:28.208Z,5.55
2022-12-03T23:33:55.851Z,5.75
2022-12-03T23:36:23.475Z,6.57
2022-12-03T23:38:50.266Z,5.93
2022-12-03T23:41:18.728Z,5.15
2022-12-03T23:43:45.556Z,5.53
2022-12-03T23:46:14.000Z,5.03
2022-12-03T23:48:40.939Z,5.22
2022-12-03T23:51:08.967Z,5.38
2022-12-03T23:53:36.077Z,6.38
2022-12-03T23:56:06.155Z,6.35
2022-12-03T23:58:33.922Z,6.55
